DW2128 Weather Reports


Display with metric or nautical units.
time (UTC)temp
F
wind
direction
speed
MPH
gust
MPH
rain 1hr
in
rain 24hr
in
rain mn
in
humidity
%
barometer
mb
20200711235031 90 337 2.0 0.0 0.00 0.00 0.00 21 1013.4
20200711234840 91 313 2.0 0.0 0.00 0.00 0.00 21 1013.4
20200711233546 91 328 2.0 0.0 0.00 0.00 0.00 21 1013.4
20200711233349 92 316 1.0 0.0 0.00 0.00 0.00 20 1013.4
20200711232032 92 310 2.0 0.0 0.00 0.00 0.00 21 1013.4
20200711231839 92 309 2.0 0.0 0.00 0.00 0.00 20 1013.4
20200711230543 92 330 2.0 0.0 0.00 0.00 0.00 22 1013.4
20200711230331 92 309 2.0 0.0 0.00 0.00 0.00 23 1013.5
20200711225039 92 317 1.0 0.0 0.00 0.00 0.00 21 1013.5
20200711224847 92 335 2.0 0.0 0.00 0.00 0.00 20 1013.8
20200711223531 93 321 3.0 0.0 0.00 0.00 0.00 22 1013.9
20200711223342 93 315 2.0 0.0 0.00 0.00 0.00 23 1013.9
20200711222041 94 355 1.0 0.0 0.00 0.00 0.00 19 1013.9
20200711221849 93 355 1.0 0.0 0.00 0.00 0.00 19 1013.9
20200711220532 95 317 0.0 0.0 0.00 0.00 0.00 18 1013.9
20200711220336 95 309 0.0 0.0 0.00 0.00 0.00 16 1013.9
20200711215040 95 325 0.0 0.0 0.00 0.00 0.00 18 1013.9
20200711214830 95 320 0.0 0.0 0.00 0.00 0.00 18 1014.1
20200711213539 94 331 0.0 0.0 0.00 0.00 0.00 18 1014.1
20200711213348 94 318 1.0 0.0 0.00 0.00 0.00 17 1014.3
20200711212050 93 342 1.0 0.0 0.00 0.00 0.00 18 1014.3
20200711211831 93 338 0.0 0.0 0.00 0.00 0.00 17 1014.3
20200711210541 92 341 1.0 0.0 0.00 0.00 0.00 18 1014.3
20200711210350 92 341 1.0 0.0 0.00 0.00 0.00 17 1014.3
20200711205032 92 334 0.0 0.0 0.00 0.00 0.00 20 1014.4
20200711204840 92 334 0.0 0.0 0.00 0.00 0.00 20 1014.4
20200711203542 91 332 0.0 0.0 0.00 0.00 0.00 23 1014.4
20200711203347 91 332 0.0 0.0 0.00 0.00 0.00 22 1014.7
20200711202029 90 336 0.0 0.0 0.00 0.00 0.00 23 1014.9
20200711201838 90 336 0.0 0.0 0.00 0.00 0.00 23 1014.9
20200711200541 89 311 0.0 0.0 0.00 0.00 0.00 26 1014.9
20200711200346 88 311 0.0 0.0 0.00 0.00 0.00 26 1014.9
20200711195049 88 331 0.0 0.0 0.00 0.00 0.00 27 1014.9
20200711194834 88 327 0.0 0.0 0.00 0.00 0.00 28 1015.0
20200711193541 87 5 1.0 0.0 0.00 0.00 0.00 28 1015.0
20200711193349 87 319 1.0 0.0 0.00 0.00 0.00 28 1015.1
20200711192033 88 331 0.0 0.0 0.00 0.00 0.00 28 1015.1
20200711191840 88 331 0.0 0.0 0.00 0.00 0.00 28 1015.1
20200711190545 86 336 0.0 0.0 0.00 0.00 0.00 32 1015.1
20200711190352 86 336 0.0 0.0 0.00 0.00 0.00 31 1015.2
20200711185033 84 338 0.0 0.0 0.00 0.00 0.00 32 1015.1
20200711184845 84 340 0.0 0.0 0.00 0.00 0.00 33 1015.1
20200711183530 84 329 0.0 0.0 0.00 0.00 0.00 32 1015.0
20200711183336 84 325 0.0 0.0 0.00 0.00 0.00 32 1015.0
20200711182040 82 329 0.0 0.0 0.00 0.00 0.00 32 1015.0
20200711181827 82 329 0.0 0.0 0.00 0.00 0.00 34 1015.0
20200711180532 82 330 0.0 0.0 0.00 0.00 0.00 36 1015.0
20200711180345 81 330 0.0 0.0 0.00 0.00 0.00 35 1015.0
20200711175048 80 330 0.0 0.0 0.00 0.00 0.00 38 1015.0
20200711174829 80 330 0.0 0.0 0.00 0.00 0.00 39 1015.0
20200711173539 79 51 0.0 0.0 0.00 0.00 0.00 39 1015.0
20200711173349 79 57 0.0 0.0 0.00 0.00 0.00 39 1015.0
20200711172032 78 329 0.0 0.0 0.00 0.00 0.00 41 1014.9
20200711171840 78 329 0.0 0.0 0.00 0.00 0.00 42 1014.9
20200711170543 78 329 0.0 0.0 0.00 0.00 0.00 41 1014.9
20200711170349 78 329 0.0 0.0 0.00 0.00 0.00 41 1014.9
20200711165032 75 329 0.0 0.0 0.00 0.00 0.00 46 1014.9
20200711164845 75 329 0.0 0.0 0.00 0.00 0.00 46 1014.9
20200711163527 75 329 0.0 0.0 0.00 0.00 0.00 46 1014.9
20200711163335 75 329 0.0 0.0 0.00 0.00 0.00 48 1014.9
20200711162040 72 329 0.0 0.0 0.00 0.00 0.00 52 1014.9
20200711161844 72 329 0.0 0.0 0.00 0.00 0.00 53 1014.9
20200711160547 72 329 0.0 0.0 0.00 0.00 0.00 54 1014.9
20200711160336 71 329 0.0 0.0 0.00 0.00 0.00 54 1014.7
20200711155041 70 329 0.0 0.0 0.00 0.00 0.00 56 1014.7
20200711154847 70 329 0.0 0.0 0.00 0.00 0.00 56 1014.6
20200711153552 69 329 0.0 0.0 0.00 0.00 0.00 59 1014.6
20200711153335 69 329 0.0 0.0 0.00 0.00 0.00 60 1014.6
20200711152039 68 329 0.0 0.0 0.00 0.00 0.00 61 1014.7
20200711151847 68 329 0.0 0.0 0.00 0.00 0.00 62 1014.6
20200711150550 66 329 0.0 0.0 0.00 0.00 0.00 64 1014.6
20200711150331 66 329 0.0 0.0 0.00 0.00 0.00 65 1014.6
20200711145038 66 329 0.0 0.0 0.00 0.00 0.00 64 1014.6
20200711144844 66 329 0.0 0.0 0.00 0.00 0.00 65 1014.5
20200711143546 65 329 0.0 0.0 0.00 0.00 0.00 64 1014.5
20200711143335 65 329 0.0 0.0 0.00 0.00 0.00 63 1014.4
20200711142039 64 329 0.0 0.0 0.00 0.00 0.00 63 1014.4
20200711141843 64 329 0.0 0.0 0.00 0.00 0.00 63 1014.5
20200711140547 61 329 0.0 0.0 0.00 0.00 0.00 67 1014.4
20200711140332 61 329 0.0 0.0 0.00 0.00 0.00 67 1014.3
20200711135039 60 329 0.0 0.0 0.00 0.00 0.00 67 1014.3
20200711134848 60 329 0.0 0.0 0.00 0.00 0.00 67 1014.2
20200711133531 59 329 0.0 0.0 0.00 0.00 0.00 68 1014.1
20200711133338 59 329 0.0 0.0 0.00 0.00 0.00 68 1014.1
20200711132041 58 329 0.0 0.0 0.00 0.00 0.00 66 1014.1
20200711131847 58 329 0.0 0.0 0.00 0.00 0.00 67 1014.0
20200711130531 58 329 0.0 0.0 0.00 0.00 0.00 66 1014.0
20200711130342 58 329 0.0 0.0 0.00 0.00 0.00 66 1014.0
20200711125028 58 329 0.0 0.0 0.00 0.00 0.00 65 1014.0
20200711124835 58 329 0.0 0.0 0.00 0.00 0.00 65 1014.0
20200711123541 58 329 0.0 0.0 0.00 0.00 0.00 65 1014.0
20200711123330 58 329 0.0 0.0 0.00 0.00 0.00 65 1014.0
20200711122036 58 329 0.0 0.0 0.00 0.00 0.00 66 1014.0
20200711121841 58 329 0.0 0.0 0.00 0.00 0.00 66 1014.0
20200711120544 59 329 0.0 0.0 0.00 0.00 0.00 68 1014.0
20200711120350 59 329 0.0 0.0 0.00 0.00 0.00 68 1013.9
20200711115032 60 329 0.0 0.0 0.00 0.00 0.00 70 1013.8
20200711114840 60 329 0.0 0.0 0.00 0.00 0.00 70 1013.8
20200711113543 60 329 0.0 0.0 0.00 0.00 0.00 69 1013.8
20200711113348 60 329 0.0 0.0 0.00 0.00 0.00 68 1013.7
20200711112031 60 329 0.0 0.0 0.00 0.00 0.00 67 1013.6
20200711111836 60 329 0.0 0.0 0.00 0.00 0.00 67 1013.6
20200711110539 60 329 0.0 0.0 0.00 0.00 0.00 66 1013.6
20200711110349 60 329 0.0 0.0 0.00 0.00 0.00 66 1013.4
20200711105033 60 329 0.0 0.0 0.00 0.00 0.00 65 1013.4
20200711104837 60 329 0.0 0.0 0.00 0.00 0.00 65 1013.4
20200711103543 60 329 0.0 0.0 0.00 0.00 0.00 67 1013.4
20200711103348 60 329 0.0 0.0 0.00 0.00 0.00 67 1013.4
20200711102031 61 329 0.0 0.0 0.00 0.00 0.00 68 1013.4
20200711101843 61 329 0.0 0.0 0.00 0.00 0.00 68 1013.4
20200711100529 62 329 0.0 0.0 0.00 0.00 0.00 70 1013.5
20200711100336 62 329 0.0 0.0 0.00 0.00 0.00 72 1013.5
20200711095040 63 329 0.0 0.0 0.00 0.00 0.00 73 1013.5
20200711094845 63 329 0.0 0.0 0.00 0.00 0.00 73 1013.6
20200711093530 63 329 0.0 0.0 0.00 0.00 0.00 71 1013.7
20200711093340 63 329 0.0 0.0 0.00 0.00 0.00 71 1013.7
20200711092042 63 329 0.0 0.0 0.00 0.00 0.00 69 1013.7
20200711090531 64 329 0.0 0.0 0.00 0.00 0.00 65 1013.9
20200711090336 64 329 0.0 0.0 0.00 0.00 0.00 65 1013.9
20200711085042 64 329 0.0 0.0 0.00 0.00 0.00 62 1013.9
20200711084833 64 329 0.0 0.0 0.00 0.00 0.00 62 1013.9
20200711083537 64 329 0.0 0.0 0.00 0.00 0.00 61 1013.9
20200711083342 64 329 0.0 0.0 0.00 0.00 0.00 61 1014.0
20200711082046 65 329 0.0 0.0 0.00 0.00 0.00 62 1014.0
20200711081833 65 329 0.0 0.0 0.00 0.00 0.00 63 1014.0
20200711080539 66 329 0.0 0.0 0.00 0.00 0.00 65 1014.0
20200711080347 66 329 0.0 0.0 0.00 0.00 0.00 66 1013.9
20200711075030 67 329 0.0 0.0 0.00 0.00 0.00 63 1014.0
20200711074836 67 329 0.0 0.0 0.00 0.00 0.00 64 1014.0
20200711073540 67 329 0.0 0.0 0.00 0.00 0.00 63 1014.0
20200711073348 67 329 0.0 0.0 0.00 0.00 0.00 62 1014.0
20200711072032 67 329 0.0 0.0 0.00 0.00 0.00 63 1014.1
20200711071840 68 329 0.0 0.0 0.00 0.00 0.00 63 1014.1
20200711070546 68 329 0.0 0.0 0.00 0.00 0.00 62 1014.1
20200711070331 68 329 0.0 0.0 0.00 0.00 0.00 62 1014.1
20200711065037 68 329 0.0 0.0 0.00 0.00 0.00 61 1014.1
20200711064846 68 329 0.0 0.0 0.00 0.00 0.00 61 1014.1
20200711063532 69 329 0.0 0.0 0.00 0.00 0.00 60 1014.4
20200711063339 69 329 0.0 0.0 0.00 0.00 0.00 60 1014.4
20200711062042 69 329 0.0 0.0 0.00 0.00 0.00 59 1014.4
20200711061847 69 329 0.0 0.0 0.00 0.00 0.00 59 1014.4
20200711060533 69 329 0.0 0.0 0.00 0.00 0.00 58 1014.4
20200711060345 69 329 0.0 0.0 0.00 0.00 0.00 58 1014.4
20200711055048 70 329 0.0 0.0 0.00 0.00 0.00 56 1014.4
20200711054828 70 329 0.0 0.0 0.00 0.00 0.00 56 1014.4
20200711053538 70 329 0.0 0.0 0.00 0.00 0.00 55 1014.4
20200711053344 70 329 0.0 0.0 0.00 0.00 0.00 55 1014.2
20200711052047 71 329 0.0 0.0 0.00 0.00 0.00 53 1014.2
20200711051834 71 329 0.0 0.0 0.00 0.00 0.00 53 1014.0
20200711050537 72 329 0.0 0.0 0.00 0.00 0.00 52 1014.0
20200711050342 72 329 0.0 0.0 0.00 0.00 0.00 52 1014.2
20200711045045 72 329 0.0 0.0 0.00 0.00 0.00 51 1014.2
20200711044849 72 329 0.0 0.0 0.00 0.00 0.00 51 1014.1
20200711043532 73 329 0.0 0.0 0.00 0.00 0.00 50 1014.0
20200711043341 73 329 0.0 0.0 0.00 0.00 0.00 50 1014.0
20200711042031 73 329 0.0 0.0 0.00 0.00 0.00 49 1013.9
20200711041835 73 329 0.0 0.0 0.00 0.00 0.00 48 1013.9
20200711040538 73 329 0.0 0.0 0.00 0.00 0.00 47 1013.9
20200711040327 73 329 0.0 0.0 0.00 0.00 0.00 46 1013.9
20200711035032 74 329 0.0 0.0 0.00 0.00 0.00 45 1013.9
20200711034843 74 329 0.0 0.0 0.00 0.00 0.00 45 1013.9
20200711033532 75 329 0.0 0.0 0.00 0.00 0.00 44 1013.9
20200711033339 75 329 0.0 0.0 0.00 0.00 0.00 44 1013.9
20200711032047 76 329 0.0 0.0 0.00 0.00 0.00 43 1013.8
20200711031834 76 329 0.0 0.0 0.00 0.00 0.00 42 1013.8
20200711030540 77 329 0.0 0.0 0.00 0.00 0.00 40 1013.8
20200711030349 77 329 0.0 0.0 0.00 0.00 0.00 40 1013.7
20200711025032 79 329 0.0 0.0 0.00 0.00 0.00 38 1013.6
20200711024840 79 330 0.0 0.0 0.00 0.00 0.00 38 1013.6
20200711023543 79 329 0.0 0.0 0.00 0.00 0.00 35 1013.6
20200711023332 79 329 0.0 0.0 0.00 0.00 0.00 35 1013.8
20200711022037 80 330 0.0 0.0 0.00 0.00 0.00 37 1013.8
20200711021844 80 330 0.0 0.0 0.00 0.00 0.00 37 1013.9
20200711020550 81 330 0.0 0.0 0.00 0.00 0.00 35 1013.9
20200711020331 81 330 0.0 0.0 0.00 0.00 0.00 35 1013.9
20200711015038 82 315 0.0 0.0 0.00 0.00 0.00 35 1013.9
20200711014847 82 315 0.0 0.0 0.00 0.00 0.00 34 1013.9
20200711013531 83 310 0.0 0.0 0.00 0.00 0.00 33 1013.9
20200711013340 83 310 0.0 0.0 0.00 0.00 0.00 33 1013.9
20200711012044 84 311 0.0 0.0 0.00 0.00 0.00 32 1013.9
20200711011848 84 309 0.0 0.0 0.00 0.00 0.00 32 1013.6
20200711010531 83 318 0.0 0.0 0.00 0.00 0.00 33 1013.9
20200711010341 83 318 0.0 0.0 0.00 0.00 0.00 33 1013.9
20200711005044 85 338 0.0 0.0 0.00 0.00 0.00 27 1013.9
20200711004848 85 302 0.0 0.0 0.00 0.00 0.00 27 1013.9
20200711003531 86 317 0.0 0.0 0.00 0.00 0.00 23 1013.8
20200711003337 86 309 0.0 0.0 0.00 0.00 0.00 24 1013.8
20200711002041 86 323 0.0 0.0 0.00 0.00 0.00 24 1013.8
20200711001849 86 324 1.0 0.0 0.00 0.00 0.00 23 1013.8
20200711000533 88 348 1.0 0.0 0.00 0.00 0.00 25 1013.9
20200711000341 88 345 0.0 0.0 0.00 0.00 0.00 25 1013.9